Time;durP1;ratioP1;P1;durP2;ratioP2;P2;SDS_P1;SDS_P2;PMS_P1;PMS_P2;Temp;Humidity;BMP_temperature;BMP_pressure;BME280_temperature;BME280_humidity;BME280_pressure;Samples;Min_cycle;Max_cycle;Signal;HPM_P1;HPM_P2
2021/08/09 00:01:21;;;;;;;2.38;1.40;;;;;;;14.27;65.79;96928.94;5034909;28;20065;-75
2021/08/09 00:03:50;;;;;;;5.63;1.48;;;;;;;14.24;65.84;96935.41;5034824;28;20137;-75
2021/08/09 00:06:21;;;;;;;3.05;1.50;;;;;;;14.22;65.74;96934.78;5035198;28;20060;-74
2021/08/09 00:08:49;;;;;;;2.23;1.00;;;;;;;14.20;65.84;96931.53;5035059;28;20053;-75
2021/08/09 00:11:16;;;;;;;3.50;1.70;;;;;;;14.18;65.76;96928.31;5034854;28;20294;-75
2021/08/09 00:13:44;;;;;;;1.92;1.38;;;;;;;14.18;65.88;96923.06;5035228;28;20045;-75
2021/08/09 00:16:11;;;;;;;3.78;0.90;;;;;;;14.27;67.88;96927.13;5034871;28;20050;-75
2021/08/09 00:18:42;;;;;;;4.38;1.42;;;;;;;14.33;67.14;96925.53;5035168;28;20064;-75
2021/08/09 00:21:10;;;;;;;3.00;1.45;;;;;;;14.36;65.96;96927.75;5034864;28;20049;-75
2021/08/09 00:23:38;;;;;;;3.25;1.17;;;;;;;14.38;66.29;96929.16;5034389;28;20053;-76
2021/08/09 00:26:05;;;;;;;2.58;1.73;;;;;;;14.42;65.92;96921.72;5034776;28;20049;-75
2021/08/09 00:28:33;;;;;;;2.90;1.30;;;;;;;14.46;65.64;96919.50;5034558;28;20126;-74
2021/08/09 00:31:00;;;;;;;1.67;1.35;;;;;;;14.53;68.52;96925.59;5034364;28;20052;-74
2021/08/09 00:33:28;;;;;;;3.03;1.60;;;;;;;14.54;66.13;96927.19;5034176;28;20140;-75
2021/08/09 00:35:56;;;;;;;3.75;1.25;;;;;;;14.53;65.88;96925.59;5034284;28;20060;-75
2021/08/09 00:38:24;;;;;;;2.40;1.75;;;;;;;14.51;65.53;96919.72;5034615;28;20103;-74
2021/08/09 00:40:52;;;;;;;3.95;1.17;;;;;;;14.51;65.33;96928.41;5033648;28;20045;-75
2021/08/09 00:43:21;;;;;;;2.47;1.27;;;;;;;14.48;65.49;96928.00;5033691;28;20140;-75
2021/08/09 00:45:49;;;;;;;4.38;1.60;;;;;;;14.43;65.40;96925.97;5034414;28;20056;-75
2021/08/09 00:48:17;;;;;;;1.92;1.30;;;;;;;14.38;65.52;96917.88;5033752;28;20049;-74
2021/08/09 00:50:44;;;;;;;5.55;1.70;;;;;;;14.31;65.78;96919.66;5033598;28;20056;-75
2021/08/09 00:53:12;;;;;;;3.92;1.63;;;;;;;14.29;66.02;96924.31;5033949;28;20057;-75
2021/08/09 00:55:42;;;;;;;5.13;1.70;;;;;;;14.25;66.07;96923.06;5033737;28;20060;-75
2021/08/09 00:58:11;;;;;;;2.42;1.25;;;;;;;14.21;66.10;96922.66;5034288;28;20507;-76
2021/08/09 01:00:38;;;;;;;4.50;1.20;;;;;;;14.17;66.26;96926.69;5033704;28;20059;-75
2021/08/09 01:03:06;;;;;;;2.05;1.25;;;;;;;14.14;66.43;96927.06;5034156;28;20088;-75
2021/08/09 01:05:33;;;;;;;4.43;1.80;;;;;;;14.11;66.63;96933.53;5034459;28;20053;-74
2021/08/09 01:08:11;;;;;;;4.50;1.30;;;;;;;14.07;66.75;96926.25;5034134;28;20057;-75
2021/08/09 01:10:52;;;;;;;6.07;1.25;;;;;;;14.05;67.13;96934.31;5034101;28;20066;-75
2021/08/09 01:13:25;;;;;;;2.85;1.27;;;;;;;14.04;67.06;96918.75;5033755;28;20049;-75
2021/08/09 01:15:57;;;;;;;2.50;1.90;;;;;;;14.06;66.94;96927.22;5033724;28;20068;-76
2021/08/09 01:18:30;;;;;;;1.95;1.30;;;;;;;14.04;66.86;96926.63;5033698;28;20072;-75
2021/08/09 01:21:00;;;;;;;3.13;1.45;;;;;;;14.02;66.94;96913.72;5033777;28;20064;-75
2021/08/09 01:23:48;;;;;;;2.22;1.33;;;;;;;14.00;67.13;96913.91;5032963;28;20053;-75
2021/08/09 01:26:25;;;;;;;2.80;1.27;;;;;;;13.98;67.24;96913.28;5031783;28;20053;-75
2021/08/09 01:28:56;;;;;;;2.80;1.33;;;;;;;13.98;67.33;96917.72;5033625;28;20422;-74
2021/08/09 01:31:28;;;;;;;4.03;1.27;;;;;;;13.95;67.21;96912.84;5033485;28;20404;-74
2021/08/09 01:33:57;;;;;;;3.97;1.23;;;;;;;13.93;67.23;96918.31;5032961;28;20446;-75
2021/08/09 01:36:25;;;;;;;3.72;1.63;;;;;;;13.91;67.45;96912.47;5033133;28;20049;-75
2021/08/09 01:38:53;;;;;;;2.90;1.70;;;;;;;13.89;67.44;96917.09;5033173;28;20045;-75
2021/08/09 01:41:25;;;;;;;2.55;1.65;;;;;;;13.86;67.79;96914.84;5032636;28;20049;-75
2021/08/09 01:43:53;;;;;;;1.90;1.17;;;;;;;13.81;67.68;96914.63;5032186;28;20065;-75
2021/08/09 01:49:07;;;;;;;4.50;2.07;;;;;;;13.76;67.99;96919.66;5178786;22;20330;-78
2021/08/09 01:51:37;;;;;;;1.77;1.30;;;;;;;13.75;67.76;96923.25;5052194;28;20293;-77
2021/08/09 01:54:06;;;;;;;2.63;1.83;;;;;;;13.70;67.92;96920.41;5051858;28;20041;-77
2021/08/09 01:56:34;;;;;;;3.72;1.50;;;;;;;13.64;67.98;96918.56;5051847;28;20048;-77
2021/08/09 01:59:01;;;;;;;2.72;1.42;;;;;;;13.60;68.29;96911.09;5052008;28;20529;-76
2021/08/09 02:01:29;;;;;;;3.83;1.67;;;;;;;13.58;68.35;96917.53;5051715;28;20418;-77
2021/08/09 02:03:56;;;;;;;3.40;1.63;;;;;;;13.54;68.46;96919.72;5051810;28;20125;-77
2021/08/09 02:06:25;;;;;;;2.00;1.77;;;;;;;13.51;68.61;96921.91;5051963;28;20044;-76
2021/08/09 02:08:53;;;;;;;5.40;2.10;;;;;;;13.46;68.64;96922.50;5054742;28;20052;-77
2021/08/09 02:11:27;;;;;;;3.28;1.85;;;;;;;13.41;69.21;96924.88;5055916;28;20546;-77
2021/08/09 02:13:59;;;;;;;4.80;1.60;;;;;;;13.40;68.99;96928.50;5056005;28;20056;-77
2021/08/09 02:16:31;;;;;;;2.95;1.90;;;;;;;13.34;69.14;96927.47;5056128;28;20083;-76
2021/08/09 02:19:02;;;;;;;6.53;1.73;;;;;;;13.29;69.15;96921.16;5056013;28;20049;-77
2021/08/09 02:21:40;;;;;;;2.35;1.50;;;;;;;13.26;69.21;96921.53;5056036;28;20049;-77
2021/08/09 02:24:10;;;;;;;2.08;1.70;;;;;;;13.23;69.31;96916.66;5055738;28;20053;-76
2021/08/09 02:26:49;;;;;;;3.17;1.75;;;;;;;13.20;69.60;96915.22;5055725;28;20510;-76
2021/08/09 02:29:21;;;;;;;3.28;2.00;;;;;;;13.16;69.58;96916.59;5055919;28;20052;-77
2021/08/09 02:31:51;;;;;;;3.67;1.48;;;;;;;13.14;69.49;96914.19;5055870;28;20049;-76
2021/08/09 02:34:21;;;;;;;3.22;1.60;;;;;;;13.09;69.73;96919.16;5055500;28;20053;-77
2021/08/09 02:36:51;;;;;;;1.65;1.52;;;;;;;13.05;69.77;96920.53;5055599;28;20049;-76
2021/08/09 02:39:20;;;;;;;2.17;1.33;;;;;;;13.03;69.71;96919.94;5061086;28;20060;-77
2021/08/09 02:41:48;;;;;;;1.60;1.50;;;;;;;13.01;69.70;96916.72;5070864;28;20060;-77
2021/08/09 02:44:16;;;;;;;1.88;1.48;;;;;;;13.00;69.80;96917.69;5069754;28;20048;-78
2021/08/09 02:46:45;;;;;;;2.78;1.27;;;;;;;12.99;69.83;96916.88;5070261;28;20053;-78
2021/08/09 02:49:13;;;;;;;2.58;1.55;;;;;;;12.99;70.22;96918.69;5056010;28;20098;-77
2021/08/09 02:51:41;;;;;;;3.47;1.90;;;;;;;12.98;69.73;96923.09;5055313;28;20461;-76
2021/08/09 02:54:10;;;;;;;6.80;2.00;;;;;;;12.98;69.96;96922.31;5055107;28;20053;-76
2021/08/09 02:56:38;;;;;;;2.67;1.92;;;;;;;12.96;69.64;96927.72;5055207;28;20053;-77
2021/08/09 02:59:06;;;;;;;4.25;1.83;;;;;;;12.95;69.78;96927.94;5055339;28;20308;-77
2021/08/09 03:01:35;;;;;;;1.60;1.50;;;;;;;12.93;69.81;96935.97;5055049;28;20045;-78
2021/08/09 03:04:06;;;;;;;2.53;1.70;;;;;;;12.92;69.87;96936.97;5055179;28;20126;-77
2021/08/09 03:06:33;;;;;;;3.13;1.80;;;;;;;12.92;69.81;96949.22;5055181;28;20053;-77
2021/08/09 03:09:04;;;;;;;5.15;1.60;;;;;;;12.92;69.67;96947.44;5055073;28;20060;-77
2021/08/09 03:11:35;;;;;;;3.42;1.70;;;;;;;12.92;69.74;96954.47;5054869;28;20426;-77
2021/08/09 03:14:02;;;;;;;2.40;1.42;;;;;;;12.91;69.59;96961.53;5054547;28;20056;-77
2021/08/09 03:16:30;;;;;;;3.35;1.55;;;;;;;12.89;69.78;96966.13;5054584;28;20056;-77
2021/08/09 03:18:58;;;;;;;5.22;1.75;;;;;;;12.89;69.78;96965.34;5055096;28;20049;-77
2021/08/09 03:21:26;;;;;;;4.25;1.65;;;;;;;12.89;69.63;96965.34;5054967;28;20079;-77
2021/08/09 03:23:53;;;;;;;2.30;1.88;;;;;;;12.85;69.73;96959.66;5054506;28;20060;-77
2021/08/09 03:26:21;;;;;;;2.58;1.70;;;;;;;12.83;69.80;96960.84;5054952;28;20053;-77
2021/08/09 03:28:49;;;;;;;3.08;1.65;;;;;;;12.80;70.10;96961.22;5054459;28;20059;-77
2021/08/09 03:31:17;;;;;;;2.85;1.65;;;;;;;12.80;70.01;96963.84;5054967;28;20072;-77
2021/08/09 03:33:44;;;;;;;4.18;2.28;;;;;;;12.78;69.94;96964.81;5055237;28;20049;-77
2021/08/09 03:36:12;;;;;;;5.25;1.60;;;;;;;12.76;69.85;96968.63;5055300;28;20389;-76
2021/08/09 03:38:39;;;;;;;2.85;1.70;;;;;;;12.73;69.89;96963.78;5055129;28;20057;-77
2021/08/09 03:41:07;;;;;;;4.82;1.55;;;;;;;12.70;70.04;96961.50;5055494;28;20053;-77
2021/08/09 03:43:34;;;;;;;2.92;1.50;;;;;;;12.67;70.13;96961.91;5054533;28;20438;-77
2021/08/09 03:46:03;;;;;;;3.30;2.05;;;;;;;12.66;70.50;96968.09;5054601;28;20055;-77
2021/08/09 03:48:31;;;;;;;2.95;1.60;;;;;;;12.68;70.54;96956.47;5054327;28;20056;-77
2021/08/09 03:50:58;;;;;;;3.95;1.77;;;;;;;12.70;70.30;96954.50;5054295;28;20063;-77
2021/08/09 03:53:26;;;;;;;3.88;1.92;;;;;;;12.70;70.10;96951.88;5053774;28;20046;-77
2021/08/09 03:55:53;;;;;;;3.38;1.85;;;;;;;12.78;71.57;96953.53;5053710;28;20502;-77
2021/08/09 03:58:21;;;;;;;3.95;1.55;;;;;;;12.82;70.21;96951.38;5054253;28;20060;-79
2021/08/09 04:00:48;;;;;;;4.03;1.50;;;;;;;12.81;69.86;96962.81;5054019;28;20052;-79
2021/08/09 04:03:17;;;;;;;3.25;1.20;;;;;;;12.75;69.83;96962.59;5053871;28;20053;-76
2021/08/09 04:05:45;;;;;;;2.63;1.60;;;;;;;12.72;69.87;96973.41;5053869;28;20459;-77
2021/08/09 04:08:12;;;;;;;5.80;1.60;;;;;;;12.69;69.76;96973.00;5053842;28;20057;-76
2021/08/09 04:10:40;;;;;;;3.17;1.23;;;;;;;12.67;69.72;96972.38;5053804;28;20053;-76
2021/08/09 04:13:07;;;;;;;2.22;1.13;;;;;;;12.66;69.71;96970.72;5053525;28;20045;-76
2021/08/09 04:15:35;;;;;;;2.17;1.50;;;;;;;12.64;69.63;96967.47;5053872;28;20723;-77
2021/08/09 04:18:03;;;;;;;1.65;1.20;;;;;;;12.61;69.32;96965.25;5053910;28;20053;-77
2021/08/09 04:20:32;;;;;;;4.03;1.50;;;;;;;12.60;69.83;96968.88;5053782;28;20072;-76
2021/08/09 04:23:00;;;;;;;3.03;1.85;;;;;;;12.59;69.90;96957.56;5053115;28;20063;-76
2021/08/09 04:25:28;;;;;;;1.42;1.20;;;;;;;12.60;69.94;96950.56;5053603;28;20056;-76
2021/08/09 04:27:55;;;;;;;6.03;1.60;;;;;;;12.62;69.85;96945.94;5053671;28;20049;-76
2021/08/09 04:30:23;;;;;;;1.73;1.25;;;;;;;12.62;69.72;96956.41;5052911;28;20059;-76
2021/08/09 04:32:50;;;;;;;2.55;1.17;;;;;;;12.64;70.10;96957.84;5053223;28;20048;-76
2021/08/09 04:35:18;;;;;;;1.52;1.08;;;;;;;12.69;70.83;96955.47;5053300;28;20084;-76
2021/08/09 04:37:47;;;;;;;1.83;1.38;;;;;;;12.75;70.02;96949.50;5053253;28;20060;-78
2021/08/09 04:40:15;;;;;;;4.22;1.90;;;;;;;12.75;69.78;96944.25;5053287;28;20132;-76
2021/08/09 04:42:42;;;;;;;6.80;2.00;;;;;;;12.74;69.80;96942.63;5053258;28;20114;-76
2021/08/09 04:45:10;;;;;;;4.55;2.00;;;;;;;12.75;69.86;96944.25;5053147;28;20048;-76
2021/08/09 04:47:38;;;;;;;2.55;1.52;;;;;;;12.75;69.83;96939.03;5053116;28;20075;-76
2021/08/09 04:50:06;;;;;;;3.88;2.03;;;;;;;12.75;69.87;96946.88;5053044;28;20048;-77
2021/08/09 04:52:39;;;;;;;2.05;1.45;;;;;;;12.74;70.04;96947.88;5052950;28;20045;-76
2021/08/09 04:55:09;;;;;;;4.30;1.98;;;;;;;12.75;69.95;96956.56;5053165;28;20053;-76
2021/08/09 04:57:37;;;;;;;1.83;1.35;;;;;;;12.75;69.92;96959.97;5053258;28;20056;-77
2021/08/09 05:00:06;;;;;;;5.18;1.52;;;;;;;12.76;69.81;96963.41;5053037;28;20053;-77
2021/08/09 05:02:36;;;;;;;2.88;1.48;;;;;;;12.76;70.14;96948.50;5052495;28;20041;-77
2021/08/09 05:05:04;;;;;;;1.42;1.15;;;;;;;12.75;69.70;96953.94;5053331;28;20415;-76
2021/08/09 05:07:31;;;;;;;2.92;1.65;;;;;;;12.76;70.11;96947.69;5053705;28;20139;-76
2021/08/09 05:09:59;;;;;;;2.83;1.52;;;;;;;12.77;69.96;96957.19;5051534;28;20052;-75
2021/08/09 05:12:28;;;;;;;1.88;1.50;;;;;;;12.81;71.05;96962.81;5063443;28;20056;-76
2021/08/09 05:14:55;;;;;;;4.90;1.73;;;;;;;12.86;70.23;96957.88;5072265;28;20452;-76
2021/08/09 05:17:23;;;;;;;3.35;1.40;;;;;;;12.90;72.15;96957.28;5072287;28;20048;-76
2021/08/09 05:19:52;;;;;;;3.10;1.27;;;;;;;12.95;70.54;96957.53;5072424;28;20494;-76
2021/08/09 05:22:20;;;;;;;3.15;1.40;;;;;;;12.97;70.11;96960.78;5061700;28;20048;-76
2021/08/09 05:24:48;;;;;;;5.38;1.75;;;;;;;12.99;70.26;96957.97;5052280;28;20045;-76
2021/08/09 05:27:16;;;;;;;4.28;1.27;;;;;;;13.01;70.11;96966.47;5054777;28;20409;-77
2021/08/09 05:29:45;;;;;;;2.13;1.50;;;;;;;13.02;69.79;96968.06;5072947;28;20056;-80
2021/08/09 05:32:14;;;;;;;3.50;1.63;;;;;;;13.08;70.54;96963.91;5053895;28;20053;-83
2021/08/09 05:34:46;;;;;;;3.20;1.33;;;;;;;13.11;69.92;96955.66;5053748;28;20494;-79
2021/08/09 05:37:14;;;;;;;1.67;1.15;;;;;;;13.20;72.24;96967.59;5056966;28;20513;-77
2021/08/09 05:39:42;;;;;;;3.40;1.48;;;;;;;13.30;70.84;96967.34;5053422;28;20403;-77
2021/08/09 05:42:09;;;;;;;3.83;2.08;;;;;;;13.29;69.73;96960.47;5047215;28;20057;-77
2021/08/09 05:44:38;;;;;;;2.63;1.30;;;;;;;13.27;70.01;96954.56;5051747;28;20051;-80
2021/08/09 05:47:07;;;;;;;2.45;1.35;;;;;;;13.25;69.86;96960.00;5051693;28;20416;-79
2021/08/09 05:49:34;;;;;;;1.60;1.50;;;;;;;13.23;70.14;96953.31;5052206;28;20057;-77
2021/08/09 05:52:02;;;;;;;2.08;1.30;;;;;;;13.25;70.17;96953.94;5052361;28;20049;-77
2021/08/09 05:54:29;;;;;;;3.15;1.23;;;;;;;13.25;70.26;96956.56;5051499;28;20048;-78
2021/08/09 05:56:57;;;;;;;2.35;1.17;;;;;;;13.28;70.16;96956.19;5052124;28;20061;-79
2021/08/09 05:59:24;;;;;;;3.33;1.50;;;;;;;13.32;70.66;96958.28;5052027;28;20510;-76
2021/08/09 06:01:52;;;;;;;1.83;1.30;;;;;;;13.41;71.32;96974.66;5051906;28;20060;-76
2021/08/09 06:04:23;;;;;;;3.22;1.25;;;;;;;13.52;71.97;96982.00;5051755;28;20067;-77
2021/08/09 06:06:50;;;;;;;2.78;1.65;;;;;;;13.64;72.33;96981.47;5051758;28;20052;-77
2021/08/09 06:09:18;;;;;;;2.22;1.17;;;;;;;13.69;70.86;96969.44;5051618;28;20044;-77
2021/08/09 06:11:45;;;;;;;4.43;1.50;;;;;;;13.73;70.59;96962.78;5051951;28;20049;-77
2021/08/09 06:14:12;;;;;;;4.65;1.98;;;;;;;13.79;70.38;96958.56;5051346;28;20045;-77
2021/08/09 06:16:40;;;;;;;3.75;1.73;;;;;;;13.83;70.35;96964.25;5051711;28;20052;-77
2021/08/09 06:19:08;;;;;;;2.58;1.55;;;;;;;13.90;70.29;96962.47;5051655;28;20041;-77
2021/08/09 06:21:36;;;;;;;7.00;1.67;;;;;;;13.98;70.03;96971.00;5052024;28;20053;-76
2021/08/09 06:24:05;;;;;;;4.10;1.20;;;;;;;14.07;69.71;96965.59;5052149;28;20056;-76
2021/08/09 06:26:32;;;;;;;4.57;1.30;;;;;;;14.15;69.66;96957.56;5053453;28;20045;-76
2021/08/09 06:29:00;;;;;;;3.80;1.20;;;;;;;14.23;69.65;96965.25;5053710;28;20057;-77
2021/08/09 06:31:27;;;;;;;2.67;1.35;;;;;;;14.34;70.77;96969.97;5052933;28;20052;-76
2021/08/09 06:33:55;;;;;;;3.47;1.50;;;;;;;14.45;70.33;96970.38;5052181;28;20422;-75
2021/08/09 06:36:23;;;;;;;1.20;0.98;;;;;;;14.55;69.76;96960.34;5051640;28;20418;-76
2021/08/09 06:38:51;;;;;;;2.53;1.35;;;;;;;14.64;69.81;96964.41;5051682;28;20052;-76
2021/08/09 06:41:20;;;;;;;1.30;1.20;;;;;;;14.75;71.10;96971.69;5051701;28;20445;-76
2021/08/09 06:43:47;;;;;;;2.38;1.25;;;;;;;14.88;70.39;96972.75;5051031;28;20045;-76
2021/08/09 06:46:15;;;;;;;2.75;1.20;;;;;;;14.98;70.65;96971.34;5052345;28;20053;-76
2021/08/09 06:48:44;;;;;;;2.22;1.13;;;;;;;15.08;70.09;96970.94;5052138;28;20045;-75
2021/08/09 06:51:11;;;;;;;13.93;9.85;;;;;;;15.19;70.72;96969.53;5052247;28;20056;-78
2021/08/09 06:53:39;;;;;;;3.00;1.70;;;;;;;15.30;68.84;96968.13;5052808;28;20056;-76
2021/08/09 06:56:14;;;;;;;2.10;1.50;;;;;;;15.40;68.36;96968.53;5055308;28;20056;-76
2021/08/09 06:58:41;;;;;;;1.92;1.20;;;;;;;15.51;67.82;96970.53;5055440;28;20052;-76
2021/08/09 07:01:09;;;;;;;4.65;2.70;;;;;;;15.64;69.82;96969.72;5055253;28;20049;-76
2021/08/09 07:03:37;;;;;;;4.18;1.33;;;;;;;15.75;68.26;96963.88;5054833;28;20049;-76
2021/08/09 07:06:04;;;;;;;9.63;5.82;;;;;;;15.87;68.58;96966.66;5055276;28;20049;-78
2021/08/09 07:08:32;;;;;;;8.57;4.40;;;;;;;16.00;67.75;96963.19;5054881;28;20075;-77
2021/08/09 07:10:59;;;;;;;15.35;9.32;;;;;;;16.11;68.29;96959.13;5055135;28;20060;-76
2021/08/09 07:13:28;;;;;;;11.55;6.40;;;;;;;16.25;68.54;96960.69;5055015;28;20075;-77
2021/08/09 07:15:55;;;;;;;4.28;2.17;;;;;;;16.36;68.17;96957.41;5054695;28;20071;-76
2021/08/09 07:18:23;;;;;;;3.20;1.17;;;;;;;16.48;66.58;96960.16;5054678;28;20114;-77
2021/08/09 07:20:51;;;;;;;3.70;1.40;;;;;;;16.60;65.64;96962.97;5054921;28;20056;-77
2021/08/09 07:23:18;;;;;;;4.53;2.60;;;;;;;16.71;65.01;96964.94;5054598;28;20073;-77
2021/08/09 07:25:46;;;;;;;4.30;2.47;;;;;;;16.82;64.64;96955.56;5054735;28;20466;-77
2021/08/09 07:28:13;;;;;;;3.72;2.20;;;;;;;16.93;65.51;96957.53;5055047;28;20515;-77
2021/08/09 07:30:42;;;;;;;3.40;1.67;;;;;;;17.04;65.07;96958.66;5054309;28;20503;-78
2021/08/09 07:33:10;;;;;;;2.53;1.55;;;;;;;17.18;63.66;96956.72;5054452;28;20102;-77
2021/08/09 07:35:37;;;;;;;2.05;1.00;;;;;;;17.29;61.47;96948.94;5054353;28;20052;-77
2021/08/09 07:38:05;;;;;;;3.20;0.77;;;;;;;17.41;62.17;96950.88;5055402;28;20115;-79
2021/08/09 07:40:33;;;;;;;2.88;1.25;;;;;;;17.52;59.87;96946.72;5055997;28;20111;-79
2021/08/09 07:43:00;;;;;;;2.13;1.20;;;;;;;17.64;61.65;96943.13;5054797;28;20103;-79
2021/08/09 07:45:28;;;;;;;2.15;0.90;;;;;;;17.77;60.12;96944.03;5055288;28;20056;-79
2021/08/09 07:47:57;;;;;;;3.45;0.80;;;;;;;17.90;60.07;96947.34;5076066;22;20106;-78
2021/08/09 07:50:25;;;;;;;7.80;5.60;;;;;;;18.05;59.90;96944.34;5054744;28;20411;-78
2021/08/09 07:52:52;;;;;;;2.08;0.80;;;;;;;18.18;58.26;96942.59;5054697;28;20056;-77
2021/08/09 07:55:20;;;;;;;2.88;1.30;;;;;;;18.30;58.04;96946.09;5054926;28;20045;-76
2021/08/09 07:57:47;;;;;;;1.40;0.77;;;;;;;18.46;57.24;96950.78;5054576;28;20491;-77
2021/08/09 08:00:15;;;;;;;1.67;0.80;;;;;;;18.64;57.78;96951.75;5054857;28;20053;-76
2021/08/09 08:02:43;;;;;;;0.95;0.60;;;;;;;18.81;56.29;96958.06;5055151;28;20072;-76
2021/08/09 08:05:12;;;;;;;2.05;0.50;;;;;;;18.97;57.18;96958.44;5054324;28;20071;-76
2021/08/09 08:07:39;;;;;;;1.90;0.50;;;;;;;19.08;54.81;96957.66;5054585;28;20060;-76
2021/08/09 08:10:08;;;;;;;5.40;2.22;;;;;;;19.18;54.81;96965.84;5054906;28;20056;-75
2021/08/09 08:12:37;;;;;;;6.68;3.25;;;;;;;19.30;55.83;96960.56;5054782;28;20049;-80
2021/08/09 08:15:06;;;;;;;15.73;8.45;;;;;;;19.41;55.38;96959.78;5055288;28;20041;-77
2021/08/09 08:17:34;;;;;;;4.43;3.33;;;;;;;19.52;56.32;96958.16;5054875;28;20049;-76
2021/08/09 08:20:02;;;;;;;2.13;0.85;;;;;;;19.66;54.69;96959.56;5054996;28;20057;-77
2021/08/09 08:22:31;;;;;;;3.28;0.65;;;;;;;19.77;52.62;96960.63;5054829;28;20052;-79
2021/08/09 08:24:58;;;;;;;1.67;0.80;;;;;;;19.90;51.79;96949.00;5055464;28;20057;-78
2021/08/09 08:27:26;;;;;;;1.25;0.75;;;;;;;20.03;52.86;96958.50;5054968;28;20541;-76
2021/08/09 08:29:53;;;;;;;1.08;0.80;;;;;;;20.15;50.61;96960.09;5054548;28;20052;-78
2021/08/09 08:32:21;;;;;;;3.42;0.70;;;;;;;20.24;50.03;96968.47;5056955;28;20045;-77
2021/08/09 08:34:49;;;;;;;1.42;0.80;;;;;;;20.30;51.82;96964.91;5054363;28;20216;-77
2021/08/09 08:37:17;;;;;;;1.88;0.90;;;;;;;20.41;49.34;96973.84;5055083;28;20044;-77
2021/08/09 08:39:46;;;;;;;1.38;0.60;;;;;;;20.53;49.22;96965.84;5055581;28;20056;-78
2021/08/09 08:42:14;;;;;;;3.13;0.80;;;;;;;20.66;50.86;96967.44;5054558;28;20057;-78
2021/08/09 08:44:44;;;;;;;2.35;0.50;;;;;;;20.75;49.14;96964.19;5056059;28;20534;-76
2021/08/09 08:47:13;;;;;;;1.95;0.57;;;;;;;20.87;52.40;96969.44;5057469;28;20049;-78
2021/08/09 08:49:43;;;;;;;29.73;18.52;;;;;;;20.98;50.34;96970.41;5055145;28;20056;-77
2021/08/09 08:52:11;;;;;;;7.60;5.15;;;;;;;21.07;48.93;96966.31;5062666;28;20048;-78
2021/08/09 08:54:40;;;;;;;1.48;0.60;;;;;;;21.14;46.49;96968.81;5066195;28;20056;-78
2021/08/09 08:57:17;;;;;;;0.80;0.45;;;;;;;21.25;46.04;96970.59;5066803;28;20407;-77
2021/08/09 08:59:45;;;;;;;0.85;0.82;;;;;;;21.40;48.15;96967.38;5066604;28;20060;-79
2021/08/09 09:02:33;;;;;;;1.80;0.50;;;;;;;21.51;46.59;96968.38;5055966;28;20564;-77
2021/08/09 09:05:10;;;;;;;1.42;0.30;;;;;;;21.60;45.69;96964.25;5054632;28;20048;-78
2021/08/09 09:07:40;;;;;;;3.50;0.50;;;;;;;21.73;45.06;96965.78;5053823;28;20056;-77
2021/08/09 09:10:20;;;;;;;0.93;0.40;;;;;;;21.84;43.85;96966.72;5054309;28;20072;-77
2021/08/09 09:13:07;;;;;;;0.65;0.65;;;;;;;21.96;44.04;96970.88;5059950;28;20540;-78
2021/08/09 09:16:00;;;;;;;1.85;0.52;;;;;;;22.07;43.04;96965.72;5066901;28;20049;-78
2021/08/09 09:18:42;;;;;;;;;;;;;;;22.19;45.48;96963.72;5067875;28;20076;-77
2021/08/09 09:21:23;;;;;;;0.88;0.40;;;;;;;22.25;43.80;96965.44;5053578;28;19927;-77
2021/08/09 09:23:51;;;;;;;1.35;0.77;;;;;;;22.32;44.75;96959.94;5052987;28;20056;-78
2021/08/09 09:26:20;;;;;;;2.42;0.43;;;;;;;22.38;42.81;96966.91;5052530;28;20483;-78
2021/08/09 09:28:50;;;;;;;1.17;0.50;;;;;;;22.47;42.74;96956.66;5053270;28;20048;-78
2021/08/09 09:31:29;;;;;;;3.15;0.43;;;;;;;22.58;41.75;96961.81;5053313;28;20052;-77
2021/08/09 09:33:57;;;;;;;2.78;0.30;;;;;;;22.67;42.02;96950.75;5052955;28;20051;-78
2021/08/09 09:36:25;;;;;;;3.05;2.28;;;;;;;22.80;42.16;96955.66;5052736;28;20048;-77
2021/08/09 09:38:53;;;;;;;6.53;5.05;;;;;;;22.91;41.32;96953.91;5053126;28;20053;-77
2021/08/09 09:41:22;;;;;;;10.45;8.60;;;;;;;23.00;44.12;96963.88;5056221;28;20057;-76
2021/08/09 09:43:51;;;;;;;2.70;1.60;;;;;;;23.12;41.88;96966.38;5052434;28;20055;-78
2021/08/09 09:46:23;;;;;;;1.13;0.70;;;;;;;23.26;40.42;96960.63;5053276;28;20103;-78
2021/08/09 09:48:55;;;;;;;0.57;0.40;;;;;;;23.33;41.71;96972.69;5056175;28;20120;-78
2021/08/09 09:51:23;;;;;;;1.92;0.70;;;;;;;23.37;40.83;96975.63;5053723;28;20052;-79
2021/08/09 09:53:52;;;;;;;3.58;0.63;;;;;;;23.39;39.83;96966.31;5053376;28;20052;-78
2021/08/09 09:56:20;;;;;;;1.33;0.38;;;;;;;23.49;39.02;96972.78;5053419;28;20417;-78
2021/08/09 09:58:48;;;;;;;1.45;0.30;;;;;;;23.57;40.02;96985.59;5054119;28;20052;-78
2021/08/09 10:01:17;;;;;;;1.63;0.65;;;;;;;23.64;37.87;96975.56;5052612;28;20051;-79
2021/08/09 10:03:46;;;;;;;3.40;0.40;;;;;;;23.73;38.10;96971.34;5055902;28;20052;-75
2021/08/09 10:06:15;;;;;;;3.53;0.60;;;;;;;23.84;40.10;96973.03;5072089;28;20045;-75
2021/08/09 10:08:45;;;;;;;0.95;0.40;;;;;;;23.90;41.15;96960.56;5047838;28;20036;-74
2021/08/09 10:11:12;;;;;;;0.52;0.30;;;;;;;23.88;39.47;96969.84;5053330;28;20052;-74
2021/08/09 10:13:40;;;;;;;2.17;0.75;;;;;;;23.92;38.66;96962.94;5052618;28;20095;-76
2021/08/09 10:16:11;;;;;;;0.70;0.35;;;;;;;24.03;39.86;96964.59;5053077;28;20041;-75
2021/08/09 10:18:42;;;;;;;3.65;0.50;;;;;;;24.13;38.84;96962.00;5052083;28;20454;-79
2021/08/09 10:21:10;;;;;;;14.73;10.17;;;;;;;24.20;39.98;96959.88;5052620;28;20063;-79
2021/08/09 10:23:42;;;;;;;2.45;1.65;;;;;;;24.24;38.52;96960.19;5052262;28;20052;-78
2021/08/09 10:26:12;;;;;;;3.60;1.38;;;;;;;24.28;37.94;96955.94;5052955;28;20045;-78
2021/08/09 10:29:03;;;;;;;4.40;3.25;;;;;;;24.34;38.08;96959.44;5052423;28;20055;-79
2021/08/09 10:31:33;;;;;;;1.45;0.85;;;;;;;24.45;37.41;96958.41;5056042;28;20056;-77
2021/08/09 10:34:05;;;;;;;0.75;0.68;;;;;;;24.52;38.39;96961.66;5055702;28;20045;-78
2021/08/09 10:37:06;;;;;;;1.63;0.60;;;;;;;24.61;36.97;96973.41;5058780;28;20052;-77
2021/08/09 10:40:05;;;;;;;0.85;0.50;;;;;;;24.71;37.40;96974.47;5055961;28;20052;-79
2021/08/09 10:42:39;;;;;;;3.80;0.93;;;;;;;24.78;37.11;96967.06;5014134;28;20058;-76
2021/08/09 10:45:09;;;;;;;7.13;0.82;;;;;;;24.84;37.28;96964.13;5048504;28;20052;-75
2021/08/09 10:47:54;;;;;;;2.92;0.65;;;;;;;24.87;38.00;96963.59;5055700;28;20049;-75
2021/08/09 10:50:54;;;;;;;0.70;0.40;;;;;;;24.87;37.71;96954.78;5055845;28;20045;-74
2021/08/09 10:53:43;;;;;;;2.97;0.38;;;;;;;24.93;37.43;96961.75;5055416;28;20049;-76
2021/08/09 10:56:46;;;;;;;0.88;0.40;;;;;;;24.93;36.72;96955.59;5055483;28;20056;-76
2021/08/09 10:59:32;;;;;;;;;;;;;;;24.91;37.65;96950.53;5056877;28;20053;-77
2021/08/09 11:02:00;;;;;;;1.08;0.40;;;;;;;24.84;37.52;96963.34;5054162;28;20321;-76
2021/08/09 11:04:28;;;;;;;2.13;0.60;;;;;;;24.74;36.96;96968.63;5054717;28;20494;-75
2021/08/09 11:06:57;;;;;;;1.25;0.50;;;;;;;24.66;35.99;96961.94;5055372;28;20049;-75
2021/08/09 11:09:51;;;;;;;7.00;5.65;;;;;;;24.61;36.12;96961.94;5055152;28;20136;-76
2021/08/09 11:12:24;;;;;;;1.88;1.40;;;;;;;24.58;36.05;96960.59;5055050;28;20059;-76
2021/08/09 11:15:21;;;;;;;3.22;2.50;;;;;;;24.61;36.79;96956.59;5054607;28;20072;-75
2021/08/09 11:18:07;;;;;;;0.70;0.52;;;;;;;24.63;36.89;96960.59;5056165;28;20056;-75
2021/08/09 11:20:35;;;;;;;1.42;0.40;;;;;;;24.66;36.67;96954.75;5054904;28;20053;-75
2021/08/09 11:23:08;;;;;;;2.67;0.52;;;;;;;24.72;35.69;96954.75;5054394;28;20075;-76
2021/08/09 11:25:39;;;;;;;0.90;0.28;;;;;;;24.76;36.64;96953.16;5054189;28;20498;-75
2021/08/09 11:28:09;;;;;;;1.60;0.40;;;;;;;24.78;35.83;96949.16;5063390;28;20045;-75
2021/08/09 11:30:42;;;;;;;0.68;0.55;;;;;;;24.83;35.50;96948.38;5075943;28;20049;-75
2021/08/09 11:33:26;;;;;;;1.73;0.50;;;;;;;24.86;36.55;96955.84;5074904;28;20530;-76
2021/08/09 11:35:55;;;;;;;1.02;0.40;;;;;;;24.82;35.99;96954.78;5063590;28;20045;-77
2021/08/09 11:38:26;;;;;;;1.55;0.50;;;;;;;24.81;36.52;96953.16;5054928;28;20082;-76
2021/08/09 11:40:55;;;;;;;1.52;0.43;;;;;;;24.81;36.11;96948.63;5053804;28;20064;-75
2021/08/09 11:43:28;;;;;;;1.70;0.70;;;;;;;24.80;36.37;96954.25;5054415;28;20080;-75
2021/08/09 11:46:01;;;;;;;2.72;2.25;;;;;;;24.84;36.82;96947.31;5055567;28;20503;-75
2021/08/09 11:48:30;;;;;;;64.45;42.42;;;;;;;24.88;36.85;96943.03;5054764;28;20056;-75
2021/08/09 11:51:00;;;;;;;8.40;3.67;;;;;;;24.91;36.16;96950.53;5054528;28;20052;-75